<?xml version="1.0" encoding="UTF-8" standalone="no" ?>
<gpx xmlns="http://www.topografix.com/GPX/1/1" xmlns:xsi="http://www.w3.org/2001/XMLSchema-instance" xsi:schemaLocation="http://www.topografix.com/GPX/1/1 http://www.topografix.com/GPX/1/1/gpx.xsd" version="1.1" creator="VisuGPX - https://www.visugpx.com">
  <metadata>
    <name>Boucle alco st gely grabels</name>
    <desc><![CDATA[
]]></desc>
  </metadata>
  <trk>
    <name><![CDATA[Boucle alco st gely grabels]]></name>
    <extensions>
      <line xmlns="http://www.topografix.com/GPX/gpx_style/0/2">
        <color>0000FF</color>
        <width>4</width>
      </line>
    </extensions>
    <trkseg>
      <trkpt lat="43.62849" lon="3.83082">
        <ele>83.3</ele>
        <time>2023-03-11T13:35:46Z</time>
      </trkpt>
      <trkpt lat="43.62917" lon="3.8309">
        <ele>82.2</ele>
        <time>2023-03-11T13:35:56Z</time>
      </trkpt>
      <trkpt lat="43.62954" lon="3.83103">
        <ele>82</ele>
        <time>2023-03-11T13:36:06Z</time>
      </trkpt>
      <trkpt lat="43.62988" lon="3.83114">
        <ele>81.5</ele>
        <time>2023-03-11T13:36:16Z</time>
      </trkpt>
      <trkpt lat="43.63009" lon="3.83114">
        <ele>81.1</ele>
        <time>2023-03-11T13:36:26Z</time>
      </trkpt>
      <trkpt lat="43.63039" lon="3.83107">
        <ele>81.1</ele>
        <time>2023-03-11T13:36:36Z</time>
      </trkpt>
      <trkpt lat="43.63075" lon="3.83119">
        <ele>80.3</ele>
        <time>2023-03-11T13:36:46Z</time>
      </trkpt>
      <trkpt lat="43.63118" lon="3.83122">
        <ele>80.6</ele>
        <time>2023-03-11T13:36:56Z</time>
      </trkpt>
      <trkpt lat="43.63155" lon="3.83113">
        <ele>80.4</ele>
        <time>2023-03-11T13:37:06Z</time>
      </trkpt>
      <trkpt lat="43.63191" lon="3.83101">
        <ele>80</ele>
        <time>2023-03-11T13:37:16Z</time>
      </trkpt>
      <trkpt lat="43.63227" lon="3.83086">
        <ele>80</ele>
        <time>2023-03-11T13:37:26Z</time>
      </trkpt>
      <trkpt lat="43.63258" lon="3.83074">
        <ele>80.1</ele>
        <time>2023-03-11T13:37:36Z</time>
      </trkpt>
      <trkpt lat="43.63288" lon="3.83056">
        <ele>81</ele>
        <time>2023-03-11T13:37:46Z</time>
      </trkpt>
      <trkpt lat="43.63315" lon="3.83037">
        <ele>81.3</ele>
        <time>2023-03-11T13:37:56Z</time>
      </trkpt>
      <trkpt lat="43.63343" lon="3.83014">
        <ele>82.5</ele>
        <time>2023-03-11T13:38:06Z</time>
      </trkpt>
      <trkpt lat="43.63371" lon="3.82988">
        <ele>82.7</ele>
        <time>2023-03-11T13:38:16Z</time>
      </trkpt>
      <trkpt lat="43.63396" lon="3.82961">
        <ele>83.1</ele>
        <time>2023-03-11T13:38:26Z</time>
      </trkpt>
      <trkpt lat="43.63422" lon="3.82927">
        <ele>83.7</ele>
        <time>2023-03-11T13:38:36Z</time>
      </trkpt>
      <trkpt lat="43.63448" lon="3.82893">
        <ele>83.4</ele>
        <time>2023-03-11T13:38:46Z</time>
      </trkpt>
      <trkpt lat="43.63466" lon="3.8287">
        <ele>82.7</ele>
        <time>2023-03-11T13:38:56Z</time>
      </trkpt>
      <trkpt lat="43.63491" lon="3.82838">
        <ele>81.9</ele>
        <time>2023-03-11T13:39:06Z</time>
      </trkpt>
      <trkpt lat="43.63528" lon="3.82806">
        <ele>82</ele>
        <time>2023-03-11T13:39:16Z</time>
      </trkpt>
      <trkpt lat="43.63565" lon="3.8279">
        <ele>81.1</ele>
        <time>2023-03-11T13:39:26Z</time>
      </trkpt>
      <trkpt lat="43.63606" lon="3.82784">
        <ele>78.7</ele>
        <time>2023-03-11T13:39:36Z</time>
      </trkpt>
      <trkpt lat="43.63638" lon="3.82779">
        <ele>77.9</ele>
        <time>2023-03-11T13:39:46Z</time>
      </trkpt>
      <trkpt lat="43.63678" lon="3.8277">
        <ele>78.6</ele>
        <time>2023-03-11T13:39:56Z</time>
      </trkpt>
      <trkpt lat="43.63719" lon="3.82761">
        <ele>78.7</ele>
        <time>2023-03-11T13:40:06Z</time>
      </trkpt>
      <trkpt lat="43.6376" lon="3.82751">
        <ele>78.3</ele>
        <time>2023-03-11T13:40:16Z</time>
      </trkpt>
      <trkpt lat="43.63792" lon="3.82741">
        <ele>79.3</ele>
        <time>2023-03-11T13:40:26Z</time>
      </trkpt>
      <trkpt lat="43.63826" lon="3.82725">
        <ele>80.5</ele>
        <time>2023-03-11T13:40:36Z</time>
      </trkpt>
      <trkpt lat="43.63854" lon="3.82717">
        <ele>81.5</ele>
        <time>2023-03-11T13:40:46Z</time>
      </trkpt>
      <trkpt lat="43.63874" lon="3.82734">
        <ele>80.8</ele>
        <time>2023-03-11T13:40:56Z</time>
      </trkpt>
      <trkpt lat="43.63892" lon="3.8276">
        <ele>80.6</ele>
        <time>2023-03-11T13:41:06Z</time>
      </trkpt>
      <trkpt lat="43.63909" lon="3.82802">
        <ele>79.1</ele>
        <time>2023-03-11T13:41:16Z</time>
      </trkpt>
      <trkpt lat="43.63928" lon="3.82817">
        <ele>78.8</ele>
        <time>2023-03-11T13:41:26Z</time>
      </trkpt>
      <trkpt lat="43.6395" lon="3.82815">
        <ele>79.2</ele>
        <time>2023-03-11T13:41:46Z</time>
      </trkpt>
      <trkpt lat="43.63969" lon="3.82798">
        <ele>80.2</ele>
        <time>2023-03-11T13:42:06Z</time>
      </trkpt>
      <trkpt lat="43.63992" lon="3.82795">
        <ele>81.6</ele>
        <time>2023-03-11T13:42:16Z</time>
      </trkpt>
      <trkpt lat="43.64011" lon="3.82788">
        <ele>82.8</ele>
        <time>2023-03-11T13:42:26Z</time>
      </trkpt>
      <trkpt lat="43.64026" lon="3.82769">
        <ele>83.7</ele>
        <time>2023-03-11T13:42:36Z</time>
      </trkpt>
      <trkpt lat="43.64045" lon="3.82755">
        <ele>84.8</ele>
        <time>2023-03-11T13:42:46Z</time>
      </trkpt>
      <trkpt lat="43.64064" lon="3.82736">
        <ele>85.5</ele>
        <time>2023-03-11T13:42:56Z</time>
      </trkpt>
      <trkpt lat="43.64083" lon="3.82721">
        <ele>86.1</ele>
        <time>2023-03-11T13:43:06Z</time>
      </trkpt>
      <trkpt lat="43.64103" lon="3.82702">
        <ele>87.5</ele>
        <time>2023-03-11T13:43:16Z</time>
      </trkpt>
      <trkpt lat="43.64121" lon="3.82683">
        <ele>88.5</ele>
        <time>2023-03-11T13:43:26Z</time>
      </trkpt>
      <trkpt lat="43.64138" lon="3.82663">
        <ele>89.3</ele>
        <time>2023-03-11T13:43:36Z</time>
      </trkpt>
      <trkpt lat="43.64157" lon="3.8264">
        <ele>90.3</ele>
        <time>2023-03-11T13:43:46Z</time>
      </trkpt>
      <trkpt lat="43.64175" lon="3.82615">
        <ele>91.8</ele>
        <time>2023-03-11T13:43:56Z</time>
      </trkpt>
      <trkpt lat="43.64194" lon="3.8259">
        <ele>92.3</ele>
        <time>2023-03-11T13:44:06Z</time>
      </trkpt>
      <trkpt lat="43.64211" lon="3.82565">
        <ele>93.1</ele>
        <time>2023-03-11T13:44:16Z</time>
      </trkpt>
      <trkpt lat="43.64225" lon="3.82535">
        <ele>94.2</ele>
        <time>2023-03-11T13:44:26Z</time>
      </trkpt>
      <trkpt lat="43.64239" lon="3.82507">
        <ele>93.9</ele>
        <time>2023-03-11T13:44:36Z</time>
      </trkpt>
      <trkpt lat="43.64253" lon="3.82477">
        <ele>95.3</ele>
        <time>2023-03-11T13:44:46Z</time>
      </trkpt>
      <trkpt lat="43.64265" lon="3.82448">
        <ele>95.3</ele>
        <time>2023-03-11T13:44:56Z</time>
      </trkpt>
      <trkpt lat="43.64277" lon="3.82419">
        <ele>95.9</ele>
        <time>2023-03-11T13:45:06Z</time>
      </trkpt>
      <trkpt lat="43.64293" lon="3.82395">
        <ele>96.6</ele>
        <time>2023-03-11T13:45:16Z</time>
      </trkpt>
      <trkpt lat="43.64306" lon="3.82385">
        <ele>96.1</ele>
        <time>2023-03-11T13:45:36Z</time>
      </trkpt>
      <trkpt lat="43.64311" lon="3.82362">
        <ele>96.8</ele>
        <time>2023-03-11T13:45:56Z</time>
      </trkpt>
      <trkpt lat="43.64326" lon="3.82336">
        <ele>97.6</ele>
        <time>2023-03-11T13:46:06Z</time>
      </trkpt>
      <trkpt lat="43.64338" lon="3.82301">
        <ele>98</ele>
        <time>2023-03-11T13:46:16Z</time>
      </trkpt>
      <trkpt lat="43.64357" lon="3.82272">
        <ele>98.2</ele>
        <time>2023-03-11T13:46:26Z</time>
      </trkpt>
      <trkpt lat="43.64365" lon="3.82295">
        <ele>97.6</ele>
        <time>2023-03-11T13:46:36Z</time>
      </trkpt>
      <trkpt lat="43.64359" lon="3.82334">
        <ele>97.1</ele>
        <time>2023-03-11T13:46:46Z</time>
      </trkpt>
      <trkpt lat="43.64364" lon="3.82306">
        <ele>97.2</ele>
        <time>2023-03-11T13:47:56Z</time>
      </trkpt>
      <trkpt lat="43.64364" lon="3.82275">
        <ele>98</ele>
        <time>2023-03-11T13:48:16Z</time>
      </trkpt>
      <trkpt lat="43.64385" lon="3.82258">
        <ele>98</ele>
        <time>2023-03-11T13:48:26Z</time>
      </trkpt>
      <trkpt lat="43.64408" lon="3.82244">
        <ele>98</ele>
        <time>2023-03-11T13:48:36Z</time>
      </trkpt>
      <trkpt lat="43.64428" lon="3.82249">
        <ele>98</ele>
        <time>2023-03-11T13:48:46Z</time>
      </trkpt>
      <trkpt lat="43.64453" lon="3.82273">
        <ele>98</ele>
        <time>2023-03-11T13:48:56Z</time>
      </trkpt>
      <trkpt lat="43.64475" lon="3.82288">
        <ele>98.1</ele>
        <time>2023-03-11T13:49:06Z</time>
      </trkpt>
      <trkpt lat="43.64496" lon="3.82292">
        <ele>98.9</ele>
        <time>2023-03-11T13:49:16Z</time>
      </trkpt>
      <trkpt lat="43.64512" lon="3.82304">
        <ele>100.4</ele>
        <time>2023-03-11T13:49:26Z</time>
      </trkpt>
      <trkpt lat="43.64539" lon="3.82309">
        <ele>101.2</ele>
        <time>2023-03-11T13:49:46Z</time>
      </trkpt>
      <trkpt lat="43.64568" lon="3.82317">
        <ele>101.2</ele>
        <time>2023-03-11T13:49:56Z</time>
      </trkpt>
      <trkpt lat="43.64587" lon="3.82333">
        <ele>100</ele>
        <time>2023-03-11T13:50:06Z</time>
      </trkpt>
      <trkpt lat="43.64616" lon="3.82355">
        <ele>99.9</ele>
        <time>2023-03-11T13:50:26Z</time>
      </trkpt>
      <trkpt lat="43.64642" lon="3.82375">
        <ele>100</ele>
        <time>2023-03-11T13:50:36Z</time>
      </trkpt>
      <trkpt lat="43.64674" lon="3.82398">
        <ele>100.5</ele>
        <time>2023-03-11T13:50:46Z</time>
      </trkpt>
      <trkpt lat="43.64702" lon="3.82416">
        <ele>101</ele>
        <time>2023-03-11T13:50:56Z</time>
      </trkpt>
      <trkpt lat="43.6473" lon="3.82429">
        <ele>101.7</ele>
        <time>2023-03-11T13:51:06Z</time>
      </trkpt>
      <trkpt lat="43.64758" lon="3.8243">
        <ele>102.8</ele>
        <time>2023-03-11T13:51:16Z</time>
      </trkpt>
      <trkpt lat="43.64783" lon="3.82425">
        <ele>103.6</ele>
        <time>2023-03-11T13:51:26Z</time>
      </trkpt>
      <trkpt lat="43.64804" lon="3.8242">
        <ele>104.9</ele>
        <time>2023-03-11T13:51:36Z</time>
      </trkpt>
      <trkpt lat="43.64825" lon="3.82417">
        <ele>105</ele>
        <time>2023-03-11T13:51:46Z</time>
      </trkpt>
      <trkpt lat="43.64848" lon="3.82414">
        <ele>106.1</ele>
        <time>2023-03-11T13:51:56Z</time>
      </trkpt>
      <trkpt lat="43.64869" lon="3.82415">
        <ele>106.9</ele>
        <time>2023-03-11T13:52:06Z</time>
      </trkpt>
      <trkpt lat="43.64883" lon="3.82431">
        <ele>107.9</ele>
        <time>2023-03-11T13:52:16Z</time>
      </trkpt>
      <trkpt lat="43.64896" lon="3.82448">
        <ele>109.1</ele>
        <time>2023-03-11T13:52:26Z</time>
      </trkpt>
      <trkpt lat="43.64913" lon="3.82461">
        <ele>109.6</ele>
        <time>2023-03-11T13:52:36Z</time>
      </trkpt>
      <trkpt lat="43.64933" lon="3.8245">
        <ele>109.8</ele>
        <time>2023-03-11T13:52:46Z</time>
      </trkpt>
      <trkpt lat="43.64956" lon="3.82439">
        <ele>110.8</ele>
        <time>2023-03-11T13:52:56Z</time>
      </trkpt>
      <trkpt lat="43.64973" lon="3.82429">
        <ele>112.5</ele>
        <time>2023-03-11T13:53:06Z</time>
      </trkpt>
      <trkpt lat="43.64988" lon="3.82424">
        <ele>114</ele>
        <time>2023-03-11T13:53:16Z</time>
      </trkpt>
      <trkpt lat="43.65005" lon="3.82417">
        <ele>115.5</ele>
        <time>2023-03-11T13:53:26Z</time>
      </trkpt>
      <trkpt lat="43.6502" lon="3.82413">
        <ele>116.6</ele>
        <time>2023-03-11T13:53:36Z</time>
      </trkpt>
      <trkpt lat="43.65038" lon="3.82409">
        <ele>117.5</ele>
        <time>2023-03-11T13:53:46Z</time>
      </trkpt>
      <trkpt lat="43.65055" lon="3.82405">
        <ele>118.1</ele>
        <time>2023-03-11T13:53:56Z</time>
      </trkpt>
      <trkpt lat="43.65065" lon="3.82395">
        <ele>118.7</ele>
        <time>2023-03-11T13:54:06Z</time>
      </trkpt>
      <trkpt lat="43.65073" lon="3.82367">
        <ele>117.9</ele>
        <time>2023-03-11T13:54:16Z</time>
      </trkpt>
      <trkpt lat="43.65094" lon="3.82353">
        <ele>118.2</ele>
        <time>2023-03-11T13:54:26Z</time>
      </trkpt>
      <trkpt lat="43.65114" lon="3.82359">
        <ele>119.5</ele>
        <time>2023-03-11T13:54:36Z</time>
      </trkpt>
      <trkpt lat="43.65133" lon="3.82376">
        <ele>119.8</ele>
        <time>2023-03-11T13:54:46Z</time>
      </trkpt>
      <trkpt lat="43.65148" lon="3.82406">
        <ele>119.9</ele>
        <time>2023-03-11T13:54:56Z</time>
      </trkpt>
      <trkpt lat="43.6516" lon="3.82454">
        <ele>118.1</ele>
        <time>2023-03-11T13:55:06Z</time>
      </trkpt>
      <trkpt lat="43.65159" lon="3.82502">
        <ele>117.6</ele>
        <time>2023-03-11T13:55:36Z</time>
      </trkpt>
      <trkpt lat="43.65164" lon="3.82515">
        <ele>117.7</ele>
        <time>2023-03-11T13:55:56Z</time>
      </trkpt>
      <trkpt lat="43.6517" lon="3.82512">
        <ele>116.9</ele>
        <time>2023-03-11T13:56:16Z</time>
      </trkpt>
      <trkpt lat="43.6518" lon="3.82512">
        <ele>115.2</ele>
        <time>2023-03-11T13:56:26Z</time>
      </trkpt>
      <trkpt lat="43.65197" lon="3.82517">
        <ele>112.9</ele>
        <time>2023-03-11T13:56:36Z</time>
      </trkpt>
      <trkpt lat="43.65211" lon="3.82521">
        <ele>111.4</ele>
        <time>2023-03-11T13:56:46Z</time>
      </trkpt>
      <trkpt lat="43.65224" lon="3.82525">
        <ele>110.3</ele>
        <time>2023-03-11T13:56:56Z</time>
      </trkpt>
      <trkpt lat="43.6524" lon="3.82533">
        <ele>108.6</ele>
        <time>2023-03-11T13:57:16Z</time>
      </trkpt>
      <trkpt lat="43.65256" lon="3.8254">
        <ele>107.6</ele>
        <time>2023-03-11T13:57:26Z</time>
      </trkpt>
      <trkpt lat="43.65273" lon="3.82543">
        <ele>106.2</ele>
        <time>2023-03-11T13:57:36Z</time>
      </trkpt>
      <trkpt lat="43.65296" lon="3.82554">
        <ele>105.6</ele>
        <time>2023-03-11T13:58:06Z</time>
      </trkpt>
      <trkpt lat="43.65326" lon="3.82569">
        <ele>103.4</ele>
        <time>2023-03-11T13:58:26Z</time>
      </trkpt>
      <trkpt lat="43.65358" lon="3.82592">
        <ele>102.9</ele>
        <time>2023-03-11T13:58:36Z</time>
      </trkpt>
      <trkpt lat="43.65387" lon="3.82607">
        <ele>103.3</ele>
        <time>2023-03-11T13:58:46Z</time>
      </trkpt>
      <trkpt lat="43.65414" lon="3.82615">
        <ele>103.7</ele>
        <time>2023-03-11T13:58:56Z</time>
      </trkpt>
      <trkpt lat="43.65437" lon="3.82631">
        <ele>104.3</ele>
        <time>2023-03-11T13:59:06Z</time>
      </trkpt>
      <trkpt lat="43.65457" lon="3.82654">
        <ele>106.1</ele>
        <time>2023-03-11T13:59:16Z</time>
      </trkpt>
      <trkpt lat="43.65473" lon="3.82668">
        <ele>107.2</ele>
        <time>2023-03-11T13:59:36Z</time>
      </trkpt>
      <trkpt lat="43.6549" lon="3.82685">
        <ele>108.4</ele>
        <time>2023-03-11T13:59:56Z</time>
      </trkpt>
      <trkpt lat="43.65506" lon="3.82706">
        <ele>108.4</ele>
        <time>2023-03-11T14:00:06Z</time>
      </trkpt>
      <trkpt lat="43.65511" lon="3.82726">
        <ele>110</ele>
        <time>2023-03-11T14:00:16Z</time>
      </trkpt>
      <trkpt lat="43.6552" lon="3.82744">
        <ele>111.3</ele>
        <time>2023-03-11T14:00:26Z</time>
      </trkpt>
      <trkpt lat="43.6553" lon="3.82767">
        <ele>111.3</ele>
        <time>2023-03-11T14:00:56Z</time>
      </trkpt>
      <trkpt lat="43.65539" lon="3.82782">
        <ele>110.9</ele>
        <time>2023-03-11T14:01:16Z</time>
      </trkpt>
      <trkpt lat="43.65545" lon="3.82789">
        <ele>110.9</ele>
        <time>2023-03-11T14:01:26Z</time>
      </trkpt>
      <trkpt lat="43.65559" lon="3.82803">
        <ele>110.2</ele>
        <time>2023-03-11T14:01:36Z</time>
      </trkpt>
      <trkpt lat="43.65574" lon="3.82806">
        <ele>108.4</ele>
        <time>2023-03-11T14:01:46Z</time>
      </trkpt>
      <trkpt lat="43.65592" lon="3.82826">
        <ele>108.4</ele>
        <time>2023-03-11T14:02:06Z</time>
      </trkpt>
      <trkpt lat="43.65595" lon="3.82849">
        <ele>109.4</ele>
        <time>2023-03-11T14:02:26Z</time>
      </trkpt>
      <trkpt lat="43.65607" lon="3.82869">
        <ele>107.8</ele>
        <time>2023-03-11T14:02:36Z</time>
      </trkpt>
      <trkpt lat="43.65622" lon="3.82883">
        <ele>105.7</ele>
        <time>2023-03-11T14:02:46Z</time>
      </trkpt>
      <trkpt lat="43.65639" lon="3.82895">
        <ele>104.6</ele>
        <time>2023-03-11T14:02:56Z</time>
      </trkpt>
      <trkpt lat="43.65658" lon="3.82906">
        <ele>102.2</ele>
        <time>2023-03-11T14:03:06Z</time>
      </trkpt>
      <trkpt lat="43.65679" lon="3.82912">
        <ele>99.1</ele>
        <time>2023-03-11T14:03:16Z</time>
      </trkpt>
      <trkpt lat="43.65696" lon="3.82917">
        <ele>96.8</ele>
        <time>2023-03-11T14:03:26Z</time>
      </trkpt>
      <trkpt lat="43.65711" lon="3.82915">
        <ele>95.2</ele>
        <time>2023-03-11T14:03:36Z</time>
      </trkpt>
      <trkpt lat="43.65734" lon="3.82929">
        <ele>92.7</ele>
        <time>2023-03-11T14:03:46Z</time>
      </trkpt>
      <trkpt lat="43.65754" lon="3.82972">
        <ele>91.6</ele>
        <time>2023-03-11T14:03:56Z</time>
      </trkpt>
      <trkpt lat="43.6577" lon="3.83015">
        <ele>90.5</ele>
        <time>2023-03-11T14:04:06Z</time>
      </trkpt>
      <trkpt lat="43.65784" lon="3.83037">
        <ele>89.9</ele>
        <time>2023-03-11T14:04:16Z</time>
      </trkpt>
      <trkpt lat="43.65804" lon="3.8302">
        <ele>89.7</ele>
        <time>2023-03-11T14:04:26Z</time>
      </trkpt>
      <trkpt lat="43.65817" lon="3.82995">
        <ele>89.7</ele>
        <time>2023-03-11T14:04:36Z</time>
      </trkpt>
      <trkpt lat="43.6583" lon="3.82996">
        <ele>90.6</ele>
        <time>2023-03-11T14:04:46Z</time>
      </trkpt>
      <trkpt lat="43.6585" lon="3.83012">
        <ele>90.8</ele>
        <time>2023-03-11T14:04:56Z</time>
      </trkpt>
      <trkpt lat="43.65871" lon="3.8301">
        <ele>91.1</ele>
        <time>2023-03-11T14:05:06Z</time>
      </trkpt>
      <trkpt lat="43.65896" lon="3.83007">
        <ele>92.2</ele>
        <time>2023-03-11T14:05:16Z</time>
      </trkpt>
      <trkpt lat="43.65921" lon="3.83004">
        <ele>93.4</ele>
        <time>2023-03-11T14:05:26Z</time>
      </trkpt>
      <trkpt lat="43.65946" lon="3.83001">
        <ele>94.8</ele>
        <time>2023-03-11T14:05:36Z</time>
      </trkpt>
      <trkpt lat="43.65969" lon="3.82998">
        <ele>94.3</ele>
        <time>2023-03-11T14:05:46Z</time>
      </trkpt>
      <trkpt lat="43.65992" lon="3.82994">
        <ele>94.8</ele>
        <time>2023-03-11T14:05:56Z</time>
      </trkpt>
      <trkpt lat="43.66016" lon="3.82986">
        <ele>97.2</ele>
        <time>2023-03-11T14:06:06Z</time>
      </trkpt>
      <trkpt lat="43.66043" lon="3.82984">
        <ele>99.3</ele>
        <time>2023-03-11T14:06:16Z</time>
      </trkpt>
      <trkpt lat="43.66069" lon="3.8298">
        <ele>101</ele>
        <time>2023-03-11T14:06:26Z</time>
      </trkpt>
      <trkpt lat="43.66094" lon="3.8298">
        <ele>102.2</ele>
        <time>2023-03-11T14:06:36Z</time>
      </trkpt>
      <trkpt lat="43.66118" lon="3.82987">
        <ele>103.3</ele>
        <time>2023-03-11T14:06:46Z</time>
      </trkpt>
      <trkpt lat="43.66141" lon="3.83">
        <ele>103.2</ele>
        <time>2023-03-11T14:06:56Z</time>
      </trkpt>
      <trkpt lat="43.66162" lon="3.83014">
        <ele>103.9</ele>
        <time>2023-03-11T14:07:06Z</time>
      </trkpt>
      <trkpt lat="43.66182" lon="3.83028">
        <ele>105.2</ele>
        <time>2023-03-11T14:07:16Z</time>
      </trkpt>
      <trkpt lat="43.66203" lon="3.83039">
        <ele>107.6</ele>
        <time>2023-03-11T14:07:26Z</time>
      </trkpt>
      <trkpt lat="43.66224" lon="3.83037">
        <ele>110</ele>
        <time>2023-03-11T14:07:36Z</time>
      </trkpt>
      <trkpt lat="43.66247" lon="3.8303">
        <ele>110</ele>
        <time>2023-03-11T14:07:46Z</time>
      </trkpt>
      <trkpt lat="43.66269" lon="3.83021">
        <ele>111.4</ele>
        <time>2023-03-11T14:07:56Z</time>
      </trkpt>
      <trkpt lat="43.6629" lon="3.8301">
        <ele>112.2</ele>
        <time>2023-03-11T14:08:06Z</time>
      </trkpt>
      <trkpt lat="43.66305" lon="3.83">
        <ele>112</ele>
        <time>2023-03-11T14:08:16Z</time>
      </trkpt>
      <trkpt lat="43.66316" lon="3.82987">
        <ele>114.7</ele>
        <time>2023-03-11T14:08:26Z</time>
      </trkpt>
      <trkpt lat="43.66327" lon="3.82973">
        <ele>116.4</ele>
        <time>2023-03-11T14:08:36Z</time>
      </trkpt>
      <trkpt lat="43.66338" lon="3.8296">
        <ele>117.8</ele>
        <time>2023-03-11T14:08:46Z</time>
      </trkpt>
      <trkpt lat="43.66354" lon="3.82952">
        <ele>117.6</ele>
        <time>2023-03-11T14:08:56Z</time>
      </trkpt>
      <trkpt lat="43.6637" lon="3.82946">
        <ele>117.2</ele>
        <time>2023-03-11T14:09:06Z</time>
      </trkpt>
      <trkpt lat="43.66385" lon="3.82934">
        <ele>117.7</ele>
        <time>2023-03-11T14:09:16Z</time>
      </trkpt>
      <trkpt lat="43.664" lon="3.82924">
        <ele>118.4</ele>
        <time>2023-03-11T14:09:26Z</time>
      </trkpt>
      <trkpt lat="43.66417" lon="3.8291">
        <ele>118.5</ele>
        <time>2023-03-11T14:09:36Z</time>
      </trkpt>
      <trkpt lat="43.66431" lon="3.82901">
        <ele>118.8</ele>
        <time>2023-03-11T14:09:46Z</time>
      </trkpt>
      <trkpt lat="43.66445" lon="3.8289">
        <ele>118.9</ele>
        <time>2023-03-11T14:09:56Z</time>
      </trkpt>
      <trkpt lat="43.66461" lon="3.82878">
        <ele>119</ele>
        <time>2023-03-11T14:10:06Z</time>
      </trkpt>
      <trkpt lat="43.66479" lon="3.82865">
        <ele>118.4</ele>
        <time>2023-03-11T14:10:16Z</time>
      </trkpt>
      <trkpt lat="43.66501" lon="3.82848">
        <ele>117.5</ele>
        <time>2023-03-11T14:10:26Z</time>
      </trkpt>
      <trkpt lat="43.66528" lon="3.82827">
        <ele>117.2</ele>
        <time>2023-03-11T14:10:36Z</time>
      </trkpt>
      <trkpt lat="43.66559" lon="3.82805">
        <ele>115.9</ele>
        <time>2023-03-11T14:10:46Z</time>
      </trkpt>
      <trkpt lat="43.66592" lon="3.82781">
        <ele>114.7</ele>
        <time>2023-03-11T14:10:56Z</time>
      </trkpt>
      <trkpt lat="43.6662" lon="3.8276">
        <ele>114.4</ele>
        <time>2023-03-11T14:11:06Z</time>
      </trkpt>
      <trkpt lat="43.66643" lon="3.82743">
        <ele>114.1</ele>
        <time>2023-03-11T14:11:16Z</time>
      </trkpt>
      <trkpt lat="43.66658" lon="3.82731">
        <ele>114</ele>
        <time>2023-03-11T14:11:26Z</time>
      </trkpt>
      <trkpt lat="43.66674" lon="3.82718">
        <ele>113.6</ele>
        <time>2023-03-11T14:11:36Z</time>
      </trkpt>
      <trkpt lat="43.66692" lon="3.82699">
        <ele>113</ele>
        <time>2023-03-11T14:11:46Z</time>
      </trkpt>
      <trkpt lat="43.66697" lon="3.82675">
        <ele>114.9</ele>
        <time>2023-03-11T14:11:56Z</time>
      </trkpt>
      <trkpt lat="43.6671" lon="3.82668">
        <ele>114.8</ele>
        <time>2023-03-11T14:12:06Z</time>
      </trkpt>
      <trkpt lat="43.66729" lon="3.8266">
        <ele>114.5</ele>
        <time>2023-03-11T14:12:16Z</time>
      </trkpt>
      <trkpt lat="43.66753" lon="3.82643">
        <ele>114.9</ele>
        <time>2023-03-11T14:12:36Z</time>
      </trkpt>
      <trkpt lat="43.66782" lon="3.82622">
        <ele>113.5</ele>
        <time>2023-03-11T14:12:46Z</time>
      </trkpt>
      <trkpt lat="43.66813" lon="3.82595">
        <ele>113.3</ele>
        <time>2023-03-11T14:12:56Z</time>
      </trkpt>
      <trkpt lat="43.66834" lon="3.82575">
        <ele>113.8</ele>
        <time>2023-03-11T14:13:06Z</time>
      </trkpt>
      <trkpt lat="43.66856" lon="3.82551">
        <ele>113.2</ele>
        <time>2023-03-11T14:13:16Z</time>
      </trkpt>
      <trkpt lat="43.66887" lon="3.82524">
        <ele>112.6</ele>
        <time>2023-03-11T14:13:26Z</time>
      </trkpt>
      <trkpt lat="43.66913" lon="3.825">
        <ele>114.1</ele>
        <time>2023-03-11T14:13:36Z</time>
      </trkpt>
      <trkpt lat="43.66931" lon="3.82483">
        <ele>114.3</ele>
        <time>2023-03-11T14:13:46Z</time>
      </trkpt>
      <trkpt lat="43.66943" lon="3.82468">
        <ele>114.5</ele>
        <time>2023-03-11T14:13:56Z</time>
      </trkpt>
      <trkpt lat="43.66958" lon="3.82451">
        <ele>113.7</ele>
        <time>2023-03-11T14:14:06Z</time>
      </trkpt>
      <trkpt lat="43.66974" lon="3.82435">
        <ele>112.4</ele>
        <time>2023-03-11T14:14:16Z</time>
      </trkpt>
      <trkpt lat="43.66985" lon="3.82416">
        <ele>114</ele>
        <time>2023-03-11T14:14:36Z</time>
      </trkpt>
      <trkpt lat="43.66999" lon="3.82404">
        <ele>115.4</ele>
        <time>2023-03-11T14:14:46Z</time>
      </trkpt>
      <trkpt lat="43.67011" lon="3.82387">
        <ele>115.7</ele>
        <time>2023-03-11T14:14:56Z</time>
      </trkpt>
      <trkpt lat="43.67022" lon="3.8236">
        <ele>117</ele>
        <time>2023-03-11T14:15:06Z</time>
      </trkpt>
      <trkpt lat="43.67031" lon="3.82335">
        <ele>117.8</ele>
        <time>2023-03-11T14:15:16Z</time>
      </trkpt>
      <trkpt lat="43.6704" lon="3.82312">
        <ele>118.8</ele>
        <time>2023-03-11T14:15:26Z</time>
      </trkpt>
      <trkpt lat="43.67046" lon="3.82284">
        <ele>119.7</ele>
        <time>2023-03-11T14:15:36Z</time>
      </trkpt>
      <trkpt lat="43.67057" lon="3.82241">
        <ele>120.6</ele>
        <time>2023-03-11T14:20:36Z</time>
      </trkpt>
      <trkpt lat="43.67061" lon="3.82218">
        <ele>122.1</ele>
        <time>2023-03-11T14:20:56Z</time>
      </trkpt>
      <trkpt lat="43.67065" lon="3.82196">
        <ele>123.2</ele>
        <time>2023-03-11T14:21:06Z</time>
      </trkpt>
      <trkpt lat="43.67073" lon="3.82171">
        <ele>123.6</ele>
        <time>2023-03-11T14:21:16Z</time>
      </trkpt>
      <trkpt lat="43.67069" lon="3.82148">
        <ele>125</ele>
        <time>2023-03-11T14:21:26Z</time>
      </trkpt>
      <trkpt lat="43.67051" lon="3.8214">
        <ele>126.3</ele>
        <time>2023-03-11T14:21:36Z</time>
      </trkpt>
      <trkpt lat="43.67032" lon="3.82143">
        <ele>127.5</ele>
        <time>2023-03-11T14:21:46Z</time>
      </trkpt>
      <trkpt lat="43.67004" lon="3.82134">
        <ele>129.7</ele>
        <time>2023-03-11T14:21:56Z</time>
      </trkpt>
      <trkpt lat="43.6698" lon="3.82116">
        <ele>131.1</ele>
        <time>2023-03-11T14:22:06Z</time>
      </trkpt>
      <trkpt lat="43.66959" lon="3.82099">
        <ele>132.4</ele>
        <time>2023-03-11T14:22:16Z</time>
      </trkpt>
      <trkpt lat="43.66939" lon="3.82073">
        <ele>134.4</ele>
        <time>2023-03-11T14:22:26Z</time>
      </trkpt>
      <trkpt lat="43.66926" lon="3.82053">
        <ele>135.6</ele>
        <time>2023-03-11T14:22:36Z</time>
      </trkpt>
      <trkpt lat="43.66915" lon="3.82034">
        <ele>136.8</ele>
        <time>2023-03-11T14:22:46Z</time>
      </trkpt>
      <trkpt lat="43.66903" lon="3.82014">
        <ele>137.2</ele>
        <time>2023-03-11T14:22:56Z</time>
      </trkpt>
      <trkpt lat="43.66891" lon="3.81994">
        <ele>137.9</ele>
        <time>2023-03-11T14:23:06Z</time>
      </trkpt>
      <trkpt lat="43.66881" lon="3.81971">
        <ele>138</ele>
        <time>2023-03-11T14:23:16Z</time>
      </trkpt>
      <trkpt lat="43.66871" lon="3.8195">
        <ele>138</ele>
        <time>2023-03-11T14:23:26Z</time>
      </trkpt>
      <trkpt lat="43.66864" lon="3.81922">
        <ele>138.6</ele>
        <time>2023-03-11T14:25:06Z</time>
      </trkpt>
      <trkpt lat="43.66853" lon="3.81889">
        <ele>139</ele>
        <time>2023-03-11T14:25:26Z</time>
      </trkpt>
      <trkpt lat="43.6684" lon="3.81853">
        <ele>139</ele>
        <time>2023-03-11T14:25:36Z</time>
      </trkpt>
      <trkpt lat="43.66827" lon="3.8182">
        <ele>139</ele>
        <time>2023-03-11T14:25:46Z</time>
      </trkpt>
      <trkpt lat="43.66819" lon="3.81786">
        <ele>138.8</ele>
        <time>2023-03-11T14:25:56Z</time>
      </trkpt>
      <trkpt lat="43.66807" lon="3.81749">
        <ele>138</ele>
        <time>2023-03-11T14:26:06Z</time>
      </trkpt>
      <trkpt lat="43.66792" lon="3.81707">
        <ele>138</ele>
        <time>2023-03-11T14:26:16Z</time>
      </trkpt>
      <trkpt lat="43.66781" lon="3.8166">
        <ele>137.3</ele>
        <time>2023-03-11T14:26:26Z</time>
      </trkpt>
      <trkpt lat="43.66767" lon="3.81612">
        <ele>135.8</ele>
        <time>2023-03-11T14:26:36Z</time>
      </trkpt>
      <trkpt lat="43.66741" lon="3.81568">
        <ele>136.2</ele>
        <time>2023-03-11T14:26:46Z</time>
      </trkpt>
      <trkpt lat="43.66709" lon="3.81529">
        <ele>135.6</ele>
        <time>2023-03-11T14:26:56Z</time>
      </trkpt>
      <trkpt lat="43.66684" lon="3.81475">
        <ele>133.6</ele>
        <time>2023-03-11T14:27:06Z</time>
      </trkpt>
      <trkpt lat="43.66678" lon="3.81398">
        <ele>130.9</ele>
        <time>2023-03-11T14:27:16Z</time>
      </trkpt>
      <trkpt lat="43.6669" lon="3.81351">
        <ele>133.7</ele>
        <time>2023-03-11T14:27:26Z</time>
      </trkpt>
      <trkpt lat="43.66706" lon="3.81305">
        <ele>137</ele>
        <time>2023-03-11T14:27:36Z</time>
      </trkpt>
      <trkpt lat="43.66729" lon="3.81264">
        <ele>136</ele>
        <time>2023-03-11T14:27:46Z</time>
      </trkpt>
      <trkpt lat="43.66754" lon="3.81228">
        <ele>136.4</ele>
        <time>2023-03-11T14:27:56Z</time>
      </trkpt>
      <trkpt lat="43.66759" lon="3.81206">
        <ele>137.6</ele>
        <time>2023-03-11T14:28:06Z</time>
      </trkpt>
      <trkpt lat="43.66763" lon="3.81175">
        <ele>137.3</ele>
        <time>2023-03-11T14:28:26Z</time>
      </trkpt>
      <trkpt lat="43.66763" lon="3.81136">
        <ele>136.7</ele>
        <time>2023-03-11T14:28:36Z</time>
      </trkpt>
      <trkpt lat="43.66766" lon="3.811">
        <ele>135.9</ele>
        <time>2023-03-11T14:28:46Z</time>
      </trkpt>
      <trkpt lat="43.66767" lon="3.81056">
        <ele>134.9</ele>
        <time>2023-03-11T14:28:56Z</time>
      </trkpt>
      <trkpt lat="43.66772" lon="3.81011">
        <ele>133.5</ele>
        <time>2023-03-11T14:29:06Z</time>
      </trkpt>
      <trkpt lat="43.66791" lon="3.81003">
        <ele>133.2</ele>
        <time>2023-03-11T14:29:16Z</time>
      </trkpt>
      <trkpt lat="43.66819" lon="3.80987">
        <ele>133.9</ele>
        <time>2023-03-11T14:29:36Z</time>
      </trkpt>
      <trkpt lat="43.66845" lon="3.80971">
        <ele>133.9</ele>
        <time>2023-03-11T14:30:36Z</time>
      </trkpt>
      <trkpt lat="43.66859" lon="3.80961">
        <ele>133.1</ele>
        <time>2023-03-11T14:30:56Z</time>
      </trkpt>
      <trkpt lat="43.66875" lon="3.80942">
        <ele>132.3</ele>
        <time>2023-03-11T14:31:06Z</time>
      </trkpt>
      <trkpt lat="43.66877" lon="3.80926">
        <ele>133.7</ele>
        <time>2023-03-11T14:31:26Z</time>
      </trkpt>
      <trkpt lat="43.66878" lon="3.80901">
        <ele>135.9</ele>
        <time>2023-03-11T14:31:46Z</time>
      </trkpt>
      <trkpt lat="43.66879" lon="3.80877">
        <ele>137.2</ele>
        <time>2023-03-11T14:31:56Z</time>
      </trkpt>
      <trkpt lat="43.66877" lon="3.8085">
        <ele>138.1</ele>
        <time>2023-03-11T14:32:06Z</time>
      </trkpt>
      <trkpt lat="43.66873" lon="3.80823">
        <ele>138.4</ele>
        <time>2023-03-11T14:32:16Z</time>
      </trkpt>
      <trkpt lat="43.66868" lon="3.8079">
        <ele>137.3</ele>
        <time>2023-03-11T14:32:26Z</time>
      </trkpt>
      <trkpt lat="43.66858" lon="3.80722">
        <ele>134.5</ele>
        <time>2023-03-11T14:32:36Z</time>
      </trkpt>
      <trkpt lat="43.66853" lon="3.80674">
        <ele>136</ele>
        <time>2023-03-11T14:32:46Z</time>
      </trkpt>
      <trkpt lat="43.66836" lon="3.80634">
        <ele>136.2</ele>
        <time>2023-03-11T14:32:56Z</time>
      </trkpt>
      <trkpt lat="43.6681" lon="3.80624">
        <ele>135.8</ele>
        <time>2023-03-11T14:34:06Z</time>
      </trkpt>
      <trkpt lat="43.66787" lon="3.80613">
        <ele>135.6</ele>
        <time>2023-03-11T14:34:26Z</time>
      </trkpt>
      <trkpt lat="43.6677" lon="3.80596">
        <ele>134.7</ele>
        <time>2023-03-11T14:34:36Z</time>
      </trkpt>
      <trkpt lat="43.66752" lon="3.80588">
        <ele>135.5</ele>
        <time>2023-03-11T14:35:06Z</time>
      </trkpt>
      <trkpt lat="43.66734" lon="3.80579">
        <ele>135.7</ele>
        <time>2023-03-11T14:35:26Z</time>
      </trkpt>
      <trkpt lat="43.66709" lon="3.80571">
        <ele>136.4</ele>
        <time>2023-03-11T14:35:36Z</time>
      </trkpt>
      <trkpt lat="43.66682" lon="3.80565">
        <ele>137.4</ele>
        <time>2023-03-11T14:35:46Z</time>
      </trkpt>
      <trkpt lat="43.6666" lon="3.8056">
        <ele>138.6</ele>
        <time>2023-03-11T14:35:56Z</time>
      </trkpt>
      <trkpt lat="43.66641" lon="3.80551">
        <ele>140.2</ele>
        <time>2023-03-11T14:36:06Z</time>
      </trkpt>
      <trkpt lat="43.66625" lon="3.80546">
        <ele>141.5</ele>
        <time>2023-03-11T14:36:16Z</time>
      </trkpt>
      <trkpt lat="43.66607" lon="3.80544">
        <ele>142.6</ele>
        <time>2023-03-11T14:36:26Z</time>
      </trkpt>
      <trkpt lat="43.66592" lon="3.8053">
        <ele>143.6</ele>
        <time>2023-03-11T14:36:36Z</time>
      </trkpt>
      <trkpt lat="43.66579" lon="3.80508">
        <ele>145.5</ele>
        <time>2023-03-11T14:36:46Z</time>
      </trkpt>
      <trkpt lat="43.66564" lon="3.80487">
        <ele>146.5</ele>
        <time>2023-03-11T14:36:56Z</time>
      </trkpt>
      <trkpt lat="43.66549" lon="3.80465">
        <ele>147.1</ele>
        <time>2023-03-11T14:37:06Z</time>
      </trkpt>
      <trkpt lat="43.66532" lon="3.80441">
        <ele>147.8</ele>
        <time>2023-03-11T14:37:16Z</time>
      </trkpt>
      <trkpt lat="43.66516" lon="3.80418">
        <ele>148</ele>
        <time>2023-03-11T14:37:26Z</time>
      </trkpt>
      <trkpt lat="43.665" lon="3.80401">
        <ele>147.4</ele>
        <time>2023-03-11T14:37:36Z</time>
      </trkpt>
      <trkpt lat="43.66481" lon="3.80404">
        <ele>147.9</ele>
        <time>2023-03-11T14:37:56Z</time>
      </trkpt>
      <trkpt lat="43.66463" lon="3.80414">
        <ele>148</ele>
        <time>2023-03-11T14:38:16Z</time>
      </trkpt>
      <trkpt lat="43.66442" lon="3.80428">
        <ele>147.6</ele>
        <time>2023-03-11T14:38:26Z</time>
      </trkpt>
      <trkpt lat="43.66416" lon="3.80446">
        <ele>147</ele>
        <time>2023-03-11T14:38:36Z</time>
      </trkpt>
      <trkpt lat="43.66384" lon="3.8043">
        <ele>147.5</ele>
        <time>2023-03-11T14:38:46Z</time>
      </trkpt>
      <trkpt lat="43.66356" lon="3.80412">
        <ele>148</ele>
        <time>2023-03-11T14:38:56Z</time>
      </trkpt>
      <trkpt lat="43.66328" lon="3.8039">
        <ele>147.8</ele>
        <time>2023-03-11T14:39:06Z</time>
      </trkpt>
      <trkpt lat="43.66301" lon="3.80366">
        <ele>147.7</ele>
        <time>2023-03-11T14:39:16Z</time>
      </trkpt>
      <trkpt lat="43.66274" lon="3.80342">
        <ele>147.6</ele>
        <time>2023-03-11T14:39:26Z</time>
      </trkpt>
      <trkpt lat="43.66246" lon="3.80319">
        <ele>147.8</ele>
        <time>2023-03-11T14:39:36Z</time>
      </trkpt>
      <trkpt lat="43.66221" lon="3.80298">
        <ele>147.2</ele>
        <time>2023-03-11T14:39:46Z</time>
      </trkpt>
      <trkpt lat="43.66194" lon="3.80278">
        <ele>147</ele>
        <time>2023-03-11T14:39:56Z</time>
      </trkpt>
      <trkpt lat="43.66169" lon="3.80257">
        <ele>146.8</ele>
        <time>2023-03-11T14:40:06Z</time>
      </trkpt>
      <trkpt lat="43.66143" lon="3.80238">
        <ele>147.1</ele>
        <time>2023-03-11T14:40:16Z</time>
      </trkpt>
      <trkpt lat="43.66118" lon="3.80221">
        <ele>147</ele>
        <time>2023-03-11T14:40:26Z</time>
      </trkpt>
      <trkpt lat="43.66087" lon="3.80222">
        <ele>147</ele>
        <time>2023-03-11T14:40:36Z</time>
      </trkpt>
      <trkpt lat="43.66053" lon="3.80237">
        <ele>146</ele>
        <time>2023-03-11T14:40:46Z</time>
      </trkpt>
      <trkpt lat="43.66018" lon="3.80241">
        <ele>145.6</ele>
        <time>2023-03-11T14:40:56Z</time>
      </trkpt>
      <trkpt lat="43.65979" lon="3.80233">
        <ele>144.5</ele>
        <time>2023-03-11T14:41:06Z</time>
      </trkpt>
      <trkpt lat="43.65946" lon="3.80214">
        <ele>144</ele>
        <time>2023-03-11T14:41:16Z</time>
      </trkpt>
      <trkpt lat="43.65917" lon="3.80197">
        <ele>143.1</ele>
        <time>2023-03-11T14:41:26Z</time>
      </trkpt>
      <trkpt lat="43.65891" lon="3.80172">
        <ele>142.3</ele>
        <time>2023-03-11T14:41:36Z</time>
      </trkpt>
      <trkpt lat="43.65869" lon="3.80139">
        <ele>141.7</ele>
        <time>2023-03-11T14:41:46Z</time>
      </trkpt>
      <trkpt lat="43.65846" lon="3.80101">
        <ele>139.5</ele>
        <time>2023-03-11T14:41:56Z</time>
      </trkpt>
      <trkpt lat="43.65813" lon="3.8006">
        <ele>136.9</ele>
        <time>2023-03-11T14:42:06Z</time>
      </trkpt>
      <trkpt lat="43.65775" lon="3.80043">
        <ele>135.9</ele>
        <time>2023-03-11T14:42:16Z</time>
      </trkpt>
      <trkpt lat="43.6578" lon="3.80026">
        <ele>133.1</ele>
        <time>2023-03-11T14:42:26Z</time>
      </trkpt>
      <trkpt lat="43.65803" lon="3.80021">
        <ele>132.2</ele>
        <time>2023-03-11T14:42:36Z</time>
      </trkpt>
      <trkpt lat="43.65837" lon="3.80018">
        <ele>128.9</ele>
        <time>2023-03-11T14:42:46Z</time>
      </trkpt>
      <trkpt lat="43.65871" lon="3.80011">
        <ele>124.6</ele>
        <time>2023-03-11T14:42:56Z</time>
      </trkpt>
      <trkpt lat="43.65907" lon="3.79999">
        <ele>121.3</ele>
        <time>2023-03-11T14:43:06Z</time>
      </trkpt>
      <trkpt lat="43.65934" lon="3.79964">
        <ele>118.8</ele>
        <time>2023-03-11T14:43:16Z</time>
      </trkpt>
      <trkpt lat="43.6596" lon="3.79927">
        <ele>114</ele>
        <time>2023-03-11T14:43:26Z</time>
      </trkpt>
      <trkpt lat="43.65988" lon="3.79889">
        <ele>112.2</ele>
        <time>2023-03-11T14:43:36Z</time>
      </trkpt>
      <trkpt lat="43.65999" lon="3.7984">
        <ele>106.2</ele>
        <time>2023-03-11T14:43:46Z</time>
      </trkpt>
      <trkpt lat="43.65999" lon="3.79791">
        <ele>102.7</ele>
        <time>2023-03-11T14:43:56Z</time>
      </trkpt>
      <trkpt lat="43.66004" lon="3.79747">
        <ele>99.9</ele>
        <time>2023-03-11T14:44:06Z</time>
      </trkpt>
      <trkpt lat="43.66017" lon="3.79698">
        <ele>97.2</ele>
        <time>2023-03-11T14:44:16Z</time>
      </trkpt>
      <trkpt lat="43.66025" lon="3.79649">
        <ele>92.8</ele>
        <time>2023-03-11T14:44:26Z</time>
      </trkpt>
      <trkpt lat="43.66034" lon="3.79601">
        <ele>89.8</ele>
        <time>2023-03-11T14:44:36Z</time>
      </trkpt>
      <trkpt lat="43.66031" lon="3.79554">
        <ele>86.3</ele>
        <time>2023-03-11T14:44:46Z</time>
      </trkpt>
      <trkpt lat="43.6603" lon="3.79505">
        <ele>83.5</ele>
        <time>2023-03-11T14:44:56Z</time>
      </trkpt>
      <trkpt lat="43.66031" lon="3.79456">
        <ele>81.2</ele>
        <time>2023-03-11T14:45:06Z</time>
      </trkpt>
      <trkpt lat="43.66029" lon="3.79426">
        <ele>80.2</ele>
        <time>2023-03-11T14:45:16Z</time>
      </trkpt>
      <trkpt lat="43.66024" lon="3.79399">
        <ele>79.4</ele>
        <time>2023-03-11T14:46:36Z</time>
      </trkpt>
      <trkpt lat="43.66023" lon="3.79359">
        <ele>77.3</ele>
        <time>2023-03-11T14:46:56Z</time>
      </trkpt>
      <trkpt lat="43.66032" lon="3.79334">
        <ele>75</ele>
        <time>2023-03-11T14:47:06Z</time>
      </trkpt>
      <trkpt lat="43.66038" lon="3.7928">
        <ele>72.1</ele>
        <time>2023-03-11T14:47:16Z</time>
      </trkpt>
      <trkpt lat="43.6605" lon="3.79219">
        <ele>69.9</ele>
        <time>2023-03-11T14:47:26Z</time>
      </trkpt>
      <trkpt lat="43.66061" lon="3.79174">
        <ele>68.7</ele>
        <time>2023-03-11T14:47:36Z</time>
      </trkpt>
      <trkpt lat="43.66051" lon="3.7914">
        <ele>67.1</ele>
        <time>2023-03-11T14:47:46Z</time>
      </trkpt>
      <trkpt lat="43.6606" lon="3.79107">
        <ele>63.3</ele>
        <time>2023-03-11T14:48:06Z</time>
      </trkpt>
      <trkpt lat="43.66056" lon="3.79076">
        <ele>60.3</ele>
        <time>2023-03-11T14:48:26Z</time>
      </trkpt>
      <trkpt lat="43.6606" lon="3.79098">
        <ele>62.1</ele>
        <time>2023-03-11T14:48:56Z</time>
      </trkpt>
      <trkpt lat="43.66056" lon="3.79112">
        <ele>64.1</ele>
        <time>2023-03-11T14:49:16Z</time>
      </trkpt>
      <trkpt lat="43.66051" lon="3.79118">
        <ele>65</ele>
        <time>2023-03-11T14:49:26Z</time>
      </trkpt>
      <trkpt lat="43.66045" lon="3.79096">
        <ele>62.6</ele>
        <time>2023-03-11T14:49:46Z</time>
      </trkpt>
      <trkpt lat="43.66036" lon="3.79086">
        <ele>61.8</ele>
        <time>2023-03-11T14:50:06Z</time>
      </trkpt>
      <trkpt lat="43.66023" lon="3.79065">
        <ele>60.3</ele>
        <time>2023-03-11T14:50:26Z</time>
      </trkpt>
      <trkpt lat="43.66025" lon="3.79033">
        <ele>61.4</ele>
        <time>2023-03-11T14:54:26Z</time>
      </trkpt>
      <trkpt lat="43.66028" lon="3.79024">
        <ele>62.1</ele>
        <time>2023-03-11T14:54:46Z</time>
      </trkpt>
      <trkpt lat="43.65995" lon="3.79011">
        <ele>62.1</ele>
        <time>2023-03-11T14:58:06Z</time>
      </trkpt>
      <trkpt lat="43.65978" lon="3.7898">
        <ele>63.1</ele>
        <time>2023-03-11T14:58:26Z</time>
      </trkpt>
      <trkpt lat="43.65971" lon="3.78944">
        <ele>64</ele>
        <time>2023-03-11T14:58:36Z</time>
      </trkpt>
      <trkpt lat="43.65973" lon="3.78927">
        <ele>64</ele>
        <time>2023-03-11T14:58:46Z</time>
      </trkpt>
      <trkpt lat="43.65954" lon="3.78931">
        <ele>64</ele>
        <time>2023-03-11T14:59:16Z</time>
      </trkpt>
      <trkpt lat="43.65933" lon="3.78964">
        <ele>64</ele>
        <time>2023-03-11T14:59:36Z</time>
      </trkpt>
      <trkpt lat="43.65911" lon="3.7899">
        <ele>63.4</ele>
        <time>2023-03-11T14:59:46Z</time>
      </trkpt>
      <trkpt lat="43.65883" lon="3.78994">
        <ele>63.2</ele>
        <time>2023-03-11T14:59:56Z</time>
      </trkpt>
      <trkpt lat="43.65855" lon="3.79006">
        <ele>62</ele>
        <time>2023-03-11T15:00:06Z</time>
      </trkpt>
      <trkpt lat="43.65836" lon="3.78973">
        <ele>62.1</ele>
        <time>2023-03-11T15:00:16Z</time>
      </trkpt>
      <trkpt lat="43.6582" lon="3.78938">
        <ele>61.6</ele>
        <time>2023-03-11T15:00:26Z</time>
      </trkpt>
      <trkpt lat="43.65812" lon="3.78902">
        <ele>63.3</ele>
        <time>2023-03-11T15:00:36Z</time>
      </trkpt>
      <trkpt lat="43.65781" lon="3.78912">
        <ele>61.9</ele>
        <time>2023-03-11T15:00:46Z</time>
      </trkpt>
      <trkpt lat="43.65762" lon="3.78921">
        <ele>60.3</ele>
        <time>2023-03-11T15:01:36Z</time>
      </trkpt>
      <trkpt lat="43.65745" lon="3.78913">
        <ele>60</ele>
        <time>2023-03-11T15:02:06Z</time>
      </trkpt>
      <trkpt lat="43.65739" lon="3.78875">
        <ele>62.1</ele>
        <time>2023-03-11T15:03:26Z</time>
      </trkpt>
      <trkpt lat="43.65731" lon="3.78851">
        <ele>62.9</ele>
        <time>2023-03-11T15:04:06Z</time>
      </trkpt>
      <trkpt lat="43.65722" lon="3.78827">
        <ele>63.2</ele>
        <time>2023-03-11T15:04:26Z</time>
      </trkpt>
      <trkpt lat="43.65696" lon="3.78811">
        <ele>61.9</ele>
        <time>2023-03-11T15:04:36Z</time>
      </trkpt>
      <trkpt lat="43.65669" lon="3.78804">
        <ele>61.1</ele>
        <time>2023-03-11T15:04:46Z</time>
      </trkpt>
      <trkpt lat="43.65656" lon="3.78834">
        <ele>61</ele>
        <time>2023-03-11T15:04:56Z</time>
      </trkpt>
      <trkpt lat="43.65634" lon="3.78875">
        <ele>60</ele>
        <time>2023-03-11T15:05:06Z</time>
      </trkpt>
      <trkpt lat="43.65606" lon="3.78904">
        <ele>59</ele>
        <time>2023-03-11T15:05:16Z</time>
      </trkpt>
      <trkpt lat="43.65575" lon="3.78918">
        <ele>58.9</ele>
        <time>2023-03-11T15:05:26Z</time>
      </trkpt>
      <trkpt lat="43.65539" lon="3.78931">
        <ele>58.1</ele>
        <time>2023-03-11T15:05:36Z</time>
      </trkpt>
      <trkpt lat="43.65508" lon="3.78924">
        <ele>58.7</ele>
        <time>2023-03-11T15:05:46Z</time>
      </trkpt>
      <trkpt lat="43.65479" lon="3.78916">
        <ele>59</ele>
        <time>2023-03-11T15:05:56Z</time>
      </trkpt>
      <trkpt lat="43.65449" lon="3.78907">
        <ele>59</ele>
        <time>2023-03-11T15:06:06Z</time>
      </trkpt>
      <trkpt lat="43.65416" lon="3.78893">
        <ele>58.5</ele>
        <time>2023-03-11T15:06:16Z</time>
      </trkpt>
      <trkpt lat="43.65389" lon="3.78869">
        <ele>58.4</ele>
        <time>2023-03-11T15:06:26Z</time>
      </trkpt>
      <trkpt lat="43.65365" lon="3.78847">
        <ele>57.7</ele>
        <time>2023-03-11T15:06:36Z</time>
      </trkpt>
      <trkpt lat="43.6536" lon="3.78814">
        <ele>59.3</ele>
        <time>2023-03-11T15:06:46Z</time>
      </trkpt>
      <trkpt lat="43.65368" lon="3.78777">
        <ele>60.7</ele>
        <time>2023-03-11T15:06:56Z</time>
      </trkpt>
      <trkpt lat="43.65387" lon="3.78754">
        <ele>61.1</ele>
        <time>2023-03-11T15:07:06Z</time>
      </trkpt>
      <trkpt lat="43.65402" lon="3.78727">
        <ele>62.9</ele>
        <time>2023-03-11T15:07:16Z</time>
      </trkpt>
      <trkpt lat="43.6541" lon="3.78698">
        <ele>63.6</ele>
        <time>2023-03-11T15:07:26Z</time>
      </trkpt>
      <trkpt lat="43.65422" lon="3.78667">
        <ele>62.8</ele>
        <time>2023-03-11T15:07:36Z</time>
      </trkpt>
      <trkpt lat="43.6544" lon="3.7864">
        <ele>61.8</ele>
        <time>2023-03-11T15:07:46Z</time>
      </trkpt>
      <trkpt lat="43.65421" lon="3.78625">
        <ele>60.2</ele>
        <time>2023-03-11T15:07:56Z</time>
      </trkpt>
      <trkpt lat="43.65395" lon="3.78638">
        <ele>60.8</ele>
        <time>2023-03-11T15:08:06Z</time>
      </trkpt>
      <trkpt lat="43.65369" lon="3.78649">
        <ele>63.2</ele>
        <time>2023-03-11T15:08:16Z</time>
      </trkpt>
      <trkpt lat="43.65342" lon="3.7867">
        <ele>64.2</ele>
        <time>2023-03-11T15:08:26Z</time>
      </trkpt>
      <trkpt lat="43.65314" lon="3.78693">
        <ele>65</ele>
        <time>2023-03-11T15:08:36Z</time>
      </trkpt>
      <trkpt lat="43.65282" lon="3.78712">
        <ele>64.4</ele>
        <time>2023-03-11T15:08:46Z</time>
      </trkpt>
      <trkpt lat="43.6525" lon="3.78727">
        <ele>63.8</ele>
        <time>2023-03-11T15:08:56Z</time>
      </trkpt>
      <trkpt lat="43.65226" lon="3.78745">
        <ele>62.5</ele>
        <time>2023-03-11T15:09:06Z</time>
      </trkpt>
      <trkpt lat="43.65211" lon="3.78773">
        <ele>60.7</ele>
        <time>2023-03-11T15:09:16Z</time>
      </trkpt>
      <trkpt lat="43.65186" lon="3.78793">
        <ele>62.3</ele>
        <time>2023-03-11T15:09:26Z</time>
      </trkpt>
      <trkpt lat="43.65159" lon="3.78811">
        <ele>61.9</ele>
        <time>2023-03-11T15:09:36Z</time>
      </trkpt>
      <trkpt lat="43.6515" lon="3.78835">
        <ele>60.5</ele>
        <time>2023-03-11T15:09:46Z</time>
      </trkpt>
      <trkpt lat="43.65141" lon="3.78865">
        <ele>58.6</ele>
        <time>2023-03-11T15:09:56Z</time>
      </trkpt>
      <trkpt lat="43.65115" lon="3.78886">
        <ele>58.1</ele>
        <time>2023-03-11T15:10:06Z</time>
      </trkpt>
      <trkpt lat="43.65093" lon="3.78915">
        <ele>57.7</ele>
        <time>2023-03-11T15:10:16Z</time>
      </trkpt>
      <trkpt lat="43.65079" lon="3.78942">
        <ele>56.5</ele>
        <time>2023-03-11T15:10:26Z</time>
      </trkpt>
      <trkpt lat="43.65064" lon="3.78958">
        <ele>57</ele>
        <time>2023-03-11T15:10:36Z</time>
      </trkpt>
      <trkpt lat="43.65051" lon="3.78973">
        <ele>56.4</ele>
        <time>2023-03-11T15:11:06Z</time>
      </trkpt>
      <trkpt lat="43.65031" lon="3.78985">
        <ele>57.5</ele>
        <time>2023-03-11T15:11:26Z</time>
      </trkpt>
      <trkpt lat="43.65008" lon="3.78986">
        <ele>57.5</ele>
        <time>2023-03-11T15:11:36Z</time>
      </trkpt>
      <trkpt lat="43.64984" lon="3.78996">
        <ele>57.5</ele>
        <time>2023-03-11T15:11:46Z</time>
      </trkpt>
      <trkpt lat="43.64956" lon="3.79005">
        <ele>57.6</ele>
        <time>2023-03-11T15:11:56Z</time>
      </trkpt>
      <trkpt lat="43.64928" lon="3.79028">
        <ele>56.4</ele>
        <time>2023-03-11T15:12:06Z</time>
      </trkpt>
      <trkpt lat="43.64902" lon="3.79045">
        <ele>56.7</ele>
        <time>2023-03-11T15:12:16Z</time>
      </trkpt>
      <trkpt lat="43.64874" lon="3.79068">
        <ele>56.7</ele>
        <time>2023-03-11T15:12:26Z</time>
      </trkpt>
      <trkpt lat="43.64858" lon="3.79078">
        <ele>56.5</ele>
        <time>2023-03-11T15:12:36Z</time>
      </trkpt>
      <trkpt lat="43.64826" lon="3.79114">
        <ele>57</ele>
        <time>2023-03-11T15:12:46Z</time>
      </trkpt>
      <trkpt lat="43.64795" lon="3.79136">
        <ele>59.9</ele>
        <time>2023-03-11T15:12:56Z</time>
      </trkpt>
      <trkpt lat="43.64773" lon="3.79149">
        <ele>61.3</ele>
        <time>2023-03-11T15:13:06Z</time>
      </trkpt>
      <trkpt lat="43.64736" lon="3.79178">
        <ele>61.5</ele>
        <time>2023-03-11T15:13:16Z</time>
      </trkpt>
      <trkpt lat="43.64705" lon="3.792">
        <ele>62.6</ele>
        <time>2023-03-11T15:13:26Z</time>
      </trkpt>
      <trkpt lat="43.64705" lon="3.7925">
        <ele>55.6</ele>
        <time>2023-03-11T15:13:36Z</time>
      </trkpt>
      <trkpt lat="43.64682" lon="3.7928">
        <ele>55.4</ele>
        <time>2023-03-11T15:13:46Z</time>
      </trkpt>
      <trkpt lat="43.6467" lon="3.79303">
        <ele>54.3</ele>
        <time>2023-03-11T15:13:56Z</time>
      </trkpt>
      <trkpt lat="43.6466" lon="3.7934">
        <ele>54.2</ele>
        <time>2023-03-11T15:14:06Z</time>
      </trkpt>
      <trkpt lat="43.64645" lon="3.79383">
        <ele>54.1</ele>
        <time>2023-03-11T15:14:16Z</time>
      </trkpt>
      <trkpt lat="43.64622" lon="3.79415">
        <ele>53.8</ele>
        <time>2023-03-11T15:14:26Z</time>
      </trkpt>
      <trkpt lat="43.64605" lon="3.79437">
        <ele>54.2</ele>
        <time>2023-03-11T15:14:36Z</time>
      </trkpt>
      <trkpt lat="43.64606" lon="3.79466">
        <ele>53.8</ele>
        <time>2023-03-11T15:14:46Z</time>
      </trkpt>
      <trkpt lat="43.6459" lon="3.79502">
        <ele>53.3</ele>
        <time>2023-03-11T15:14:56Z</time>
      </trkpt>
      <trkpt lat="43.64577" lon="3.79539">
        <ele>53.8</ele>
        <time>2023-03-11T15:15:06Z</time>
      </trkpt>
      <trkpt lat="43.64568" lon="3.79572">
        <ele>53.4</ele>
        <time>2023-03-11T15:15:16Z</time>
      </trkpt>
      <trkpt lat="43.64559" lon="3.7961">
        <ele>54</ele>
        <time>2023-03-11T15:15:26Z</time>
      </trkpt>
      <trkpt lat="43.64546" lon="3.79643">
        <ele>53.4</ele>
        <time>2023-03-11T15:15:36Z</time>
      </trkpt>
      <trkpt lat="43.64526" lon="3.79679">
        <ele>53.9</ele>
        <time>2023-03-11T15:15:46Z</time>
      </trkpt>
      <trkpt lat="43.6451" lon="3.79718">
        <ele>53.6</ele>
        <time>2023-03-11T15:15:56Z</time>
      </trkpt>
      <trkpt lat="43.64492" lon="3.7975">
        <ele>53.4</ele>
        <time>2023-03-11T15:16:06Z</time>
      </trkpt>
      <trkpt lat="43.6447" lon="3.79773">
        <ele>54.4</ele>
        <time>2023-03-11T15:16:16Z</time>
      </trkpt>
      <trkpt lat="43.64449" lon="3.79783">
        <ele>53.6</ele>
        <time>2023-03-11T15:16:26Z</time>
      </trkpt>
      <trkpt lat="43.64417" lon="3.79787">
        <ele>53.3</ele>
        <time>2023-03-11T15:16:36Z</time>
      </trkpt>
      <trkpt lat="43.64397" lon="3.79777">
        <ele>53</ele>
        <time>2023-03-11T15:16:46Z</time>
      </trkpt>
      <trkpt lat="43.6436" lon="3.7979">
        <ele>53</ele>
        <time>2023-03-11T15:16:56Z</time>
      </trkpt>
      <trkpt lat="43.64328" lon="3.79809">
        <ele>53</ele>
        <time>2023-03-11T15:17:06Z</time>
      </trkpt>
      <trkpt lat="43.64299" lon="3.79818">
        <ele>53.2</ele>
        <time>2023-03-11T15:17:16Z</time>
      </trkpt>
      <trkpt lat="43.64263" lon="3.79839">
        <ele>53.4</ele>
        <time>2023-03-11T15:17:56Z</time>
      </trkpt>
      <trkpt lat="43.64239" lon="3.79855">
        <ele>53</ele>
        <time>2023-03-11T15:18:16Z</time>
      </trkpt>
      <trkpt lat="43.64225" lon="3.79888">
        <ele>53</ele>
        <time>2023-03-11T15:18:26Z</time>
      </trkpt>
      <trkpt lat="43.64201" lon="3.79896">
        <ele>52.7</ele>
        <time>2023-03-11T15:18:36Z</time>
      </trkpt>
      <trkpt lat="43.6417" lon="3.79918">
        <ele>53.4</ele>
        <time>2023-03-11T15:18:46Z</time>
      </trkpt>
      <trkpt lat="43.64139" lon="3.79941">
        <ele>53.5</ele>
        <time>2023-03-11T15:18:56Z</time>
      </trkpt>
      <trkpt lat="43.64109" lon="3.79961">
        <ele>54.3</ele>
        <time>2023-03-11T15:19:06Z</time>
      </trkpt>
      <trkpt lat="43.64079" lon="3.79983">
        <ele>53.3</ele>
        <time>2023-03-11T15:19:16Z</time>
      </trkpt>
      <trkpt lat="43.6405" lon="3.80006">
        <ele>53.5</ele>
        <time>2023-03-11T15:19:26Z</time>
      </trkpt>
      <trkpt lat="43.64022" lon="3.80028">
        <ele>53.2</ele>
        <time>2023-03-11T15:19:36Z</time>
      </trkpt>
      <trkpt lat="43.63996" lon="3.8005">
        <ele>54.9</ele>
        <time>2023-03-11T15:19:46Z</time>
      </trkpt>
      <trkpt lat="43.63969" lon="3.80069">
        <ele>55.8</ele>
        <time>2023-03-11T15:19:56Z</time>
      </trkpt>
      <trkpt lat="43.63939" lon="3.80086">
        <ele>55</ele>
        <time>2023-03-11T15:20:06Z</time>
      </trkpt>
      <trkpt lat="43.63907" lon="3.80103">
        <ele>54.5</ele>
        <time>2023-03-11T15:20:16Z</time>
      </trkpt>
      <trkpt lat="43.63881" lon="3.80115">
        <ele>52.6</ele>
        <time>2023-03-11T15:20:26Z</time>
      </trkpt>
      <trkpt lat="43.63855" lon="3.80139">
        <ele>52.6</ele>
        <time>2023-03-11T15:20:36Z</time>
      </trkpt>
      <trkpt lat="43.63824" lon="3.80163">
        <ele>51.4</ele>
        <time>2023-03-11T15:20:46Z</time>
      </trkpt>
      <trkpt lat="43.63799" lon="3.80193">
        <ele>51.7</ele>
        <time>2023-03-11T15:20:56Z</time>
      </trkpt>
      <trkpt lat="43.63789" lon="3.80233">
        <ele>51.2</ele>
        <time>2023-03-11T15:21:06Z</time>
      </trkpt>
      <trkpt lat="43.63793" lon="3.80278">
        <ele>51.1</ele>
        <time>2023-03-11T15:21:16Z</time>
      </trkpt>
      <trkpt lat="43.63807" lon="3.80312">
        <ele>51.9</ele>
        <time>2023-03-11T15:21:26Z</time>
      </trkpt>
      <trkpt lat="43.63828" lon="3.80347">
        <ele>52.1</ele>
        <time>2023-03-11T15:21:36Z</time>
      </trkpt>
      <trkpt lat="43.63842" lon="3.80377">
        <ele>52.4</ele>
        <time>2023-03-11T15:21:46Z</time>
      </trkpt>
      <trkpt lat="43.63865" lon="3.80411">
        <ele>52.5</ele>
        <time>2023-03-11T15:21:56Z</time>
      </trkpt>
      <trkpt lat="43.63887" lon="3.80447">
        <ele>52.8</ele>
        <time>2023-03-11T15:22:06Z</time>
      </trkpt>
      <trkpt lat="43.63907" lon="3.80477">
        <ele>54.5</ele>
        <time>2023-03-11T15:22:16Z</time>
      </trkpt>
      <trkpt lat="43.63912" lon="3.80505">
        <ele>55</ele>
        <time>2023-03-11T15:22:26Z</time>
      </trkpt>
      <trkpt lat="43.63909" lon="3.80555">
        <ele>52.9</ele>
        <time>2023-03-11T15:22:36Z</time>
      </trkpt>
      <trkpt lat="43.6391" lon="3.80617">
        <ele>51.1</ele>
        <time>2023-03-11T15:22:46Z</time>
      </trkpt>
      <trkpt lat="43.63908" lon="3.80679">
        <ele>50.4</ele>
        <time>2023-03-11T15:22:56Z</time>
      </trkpt>
      <trkpt lat="43.6389" lon="3.80719">
        <ele>49.1</ele>
        <time>2023-03-11T15:23:06Z</time>
      </trkpt>
      <trkpt lat="43.63876" lon="3.80725">
        <ele>48.5</ele>
        <time>2023-03-11T15:24:06Z</time>
      </trkpt>
      <trkpt lat="43.63866" lon="3.80737">
        <ele>48.1</ele>
        <time>2023-03-11T15:25:16Z</time>
      </trkpt>
      <trkpt lat="43.63862" lon="3.80761">
        <ele>47.6</ele>
        <time>2023-03-11T15:25:36Z</time>
      </trkpt>
      <trkpt lat="43.63857" lon="3.80778">
        <ele>47.3</ele>
        <time>2023-03-11T15:25:56Z</time>
      </trkpt>
      <trkpt lat="43.63849" lon="3.80792">
        <ele>47.2</ele>
        <time>2023-03-11T15:26:06Z</time>
      </trkpt>
      <trkpt lat="43.63842" lon="3.80798">
        <ele>46.9</ele>
        <time>2023-03-11T15:26:16Z</time>
      </trkpt>
      <trkpt lat="43.63837" lon="3.80814">
        <ele>48.8</ele>
        <time>2023-03-11T15:26:36Z</time>
      </trkpt>
      <trkpt lat="43.63826" lon="3.80827">
        <ele>51.2</ele>
        <time>2023-03-11T15:26:56Z</time>
      </trkpt>
      <trkpt lat="43.63814" lon="3.80836">
        <ele>51.6</ele>
        <time>2023-03-11T15:27:06Z</time>
      </trkpt>
      <trkpt lat="43.63798" lon="3.80839">
        <ele>50.5</ele>
        <time>2023-03-11T15:27:16Z</time>
      </trkpt>
      <trkpt lat="43.6377" lon="3.80847">
        <ele>50.8</ele>
        <time>2023-03-11T15:27:26Z</time>
      </trkpt>
      <trkpt lat="43.63741" lon="3.80848">
        <ele>50.4</ele>
        <time>2023-03-11T15:27:36Z</time>
      </trkpt>
      <trkpt lat="43.63704" lon="3.80849">
        <ele>49.5</ele>
        <time>2023-03-11T15:27:46Z</time>
      </trkpt>
      <trkpt lat="43.6367" lon="3.80865">
        <ele>49.8</ele>
        <time>2023-03-11T15:27:56Z</time>
      </trkpt>
      <trkpt lat="43.63638" lon="3.80867">
        <ele>49.9</ele>
        <time>2023-03-11T15:28:06Z</time>
      </trkpt>
      <trkpt lat="43.6361" lon="3.80859">
        <ele>49.8</ele>
        <time>2023-03-11T15:28:16Z</time>
      </trkpt>
      <trkpt lat="43.63583" lon="3.80838">
        <ele>46.7</ele>
        <time>2023-03-11T15:28:26Z</time>
      </trkpt>
      <trkpt lat="43.63555" lon="3.80808">
        <ele>48</ele>
        <time>2023-03-11T15:28:36Z</time>
      </trkpt>
      <trkpt lat="43.63526" lon="3.80781">
        <ele>48.2</ele>
        <time>2023-03-11T15:28:46Z</time>
      </trkpt>
      <trkpt lat="43.63494" lon="3.80778">
        <ele>50.8</ele>
        <time>2023-03-11T15:28:56Z</time>
      </trkpt>
      <trkpt lat="43.63464" lon="3.80793">
        <ele>50.3</ele>
        <time>2023-03-11T15:29:06Z</time>
      </trkpt>
      <trkpt lat="43.63458" lon="3.80827">
        <ele>51.6</ele>
        <time>2023-03-11T15:29:16Z</time>
      </trkpt>
      <trkpt lat="43.63456" lon="3.80873">
        <ele>53</ele>
        <time>2023-03-11T15:29:26Z</time>
      </trkpt>
      <trkpt lat="43.6345" lon="3.80931">
        <ele>53.2</ele>
        <time>2023-03-11T15:29:36Z</time>
      </trkpt>
      <trkpt lat="43.63448" lon="3.80995">
        <ele>51.2</ele>
        <time>2023-03-11T15:29:46Z</time>
      </trkpt>
      <trkpt lat="43.63452" lon="3.8106">
        <ele>49.9</ele>
        <time>2023-03-11T15:29:56Z</time>
      </trkpt>
      <trkpt lat="43.63459" lon="3.81114">
        <ele>50.7</ele>
        <time>2023-03-11T15:30:06Z</time>
      </trkpt>
      <trkpt lat="43.63462" lon="3.8116">
        <ele>50.7</ele>
        <time>2023-03-11T15:30:16Z</time>
      </trkpt>
      <trkpt lat="43.63464" lon="3.81205">
        <ele>50.7</ele>
        <time>2023-03-11T15:30:26Z</time>
      </trkpt>
      <trkpt lat="43.63463" lon="3.81244">
        <ele>51.7</ele>
        <time>2023-03-11T15:30:36Z</time>
      </trkpt>
      <trkpt lat="43.63458" lon="3.8128">
        <ele>52.2</ele>
        <time>2023-03-11T15:30:46Z</time>
      </trkpt>
      <trkpt lat="43.63448" lon="3.81312">
        <ele>49.9</ele>
        <time>2023-03-11T15:30:56Z</time>
      </trkpt>
      <trkpt lat="43.63424" lon="3.81343">
        <ele>48.3</ele>
        <time>2023-03-11T15:31:06Z</time>
      </trkpt>
      <trkpt lat="43.634" lon="3.81363">
        <ele>47.5</ele>
        <time>2023-03-11T15:31:16Z</time>
      </trkpt>
      <trkpt lat="43.63375" lon="3.81379">
        <ele>47.2</ele>
        <time>2023-03-11T15:31:26Z</time>
      </trkpt>
      <trkpt lat="43.63351" lon="3.81403">
        <ele>45.6</ele>
        <time>2023-03-11T15:31:36Z</time>
      </trkpt>
      <trkpt lat="43.63332" lon="3.81422">
        <ele>45.4</ele>
        <time>2023-03-11T15:31:46Z</time>
      </trkpt>
      <trkpt lat="43.63312" lon="3.81451">
        <ele>44.8</ele>
        <time>2023-03-11T15:31:56Z</time>
      </trkpt>
      <trkpt lat="43.63299" lon="3.81474">
        <ele>46.2</ele>
        <time>2023-03-11T15:32:06Z</time>
      </trkpt>
      <trkpt lat="43.63273" lon="3.81506">
        <ele>45.9</ele>
        <time>2023-03-11T15:32:16Z</time>
      </trkpt>
      <trkpt lat="43.63248" lon="3.81539">
        <ele>45.4</ele>
        <time>2023-03-11T15:32:26Z</time>
      </trkpt>
      <trkpt lat="43.63222" lon="3.81569">
        <ele>45.9</ele>
        <time>2023-03-11T15:32:36Z</time>
      </trkpt>
      <trkpt lat="43.63197" lon="3.81599">
        <ele>46.3</ele>
        <time>2023-03-11T15:32:46Z</time>
      </trkpt>
      <trkpt lat="43.63169" lon="3.81628">
        <ele>47.2</ele>
        <time>2023-03-11T15:32:56Z</time>
      </trkpt>
      <trkpt lat="43.63145" lon="3.81634">
        <ele>45.2</ele>
        <time>2023-03-11T15:33:06Z</time>
      </trkpt>
      <trkpt lat="43.63117" lon="3.8164">
        <ele>43.8</ele>
        <time>2023-03-11T15:33:16Z</time>
      </trkpt>
      <trkpt lat="43.63099" lon="3.81641">
        <ele>41.8</ele>
        <time>2023-03-11T15:33:26Z</time>
      </trkpt>
      <trkpt lat="43.63093" lon="3.81664">
        <ele>46.2</ele>
        <time>2023-03-11T15:34:26Z</time>
      </trkpt>
      <trkpt lat="43.63094" lon="3.81681">
        <ele>48.4</ele>
        <time>2023-03-11T15:34:46Z</time>
      </trkpt>
      <trkpt lat="43.63098" lon="3.81708">
        <ele>53.1</ele>
        <time>2023-03-11T15:36:46Z</time>
      </trkpt>
      <trkpt lat="43.63099" lon="3.81728">
        <ele>56.2</ele>
        <time>2023-03-11T15:37:06Z</time>
      </trkpt>
      <trkpt lat="43.63104" lon="3.81744">
        <ele>58.1</ele>
        <time>2023-03-11T15:37:16Z</time>
      </trkpt>
      <trkpt lat="43.63108" lon="3.81762">
        <ele>59.3</ele>
        <time>2023-03-11T15:37:26Z</time>
      </trkpt>
      <trkpt lat="43.63107" lon="3.81774">
        <ele>59.7</ele>
        <time>2023-03-11T15:37:36Z</time>
      </trkpt>
      <trkpt lat="43.63104" lon="3.81791">
        <ele>59.7</ele>
        <time>2023-03-11T15:37:46Z</time>
      </trkpt>
      <trkpt lat="43.63104" lon="3.81817">
        <ele>59.3</ele>
        <time>2023-03-11T15:37:56Z</time>
      </trkpt>
      <trkpt lat="43.63087" lon="3.81864">
        <ele>55.9</ele>
        <time>2023-03-11T15:38:06Z</time>
      </trkpt>
      <trkpt lat="43.63067" lon="3.81901">
        <ele>52.6</ele>
        <time>2023-03-11T15:38:16Z</time>
      </trkpt>
      <trkpt lat="43.63073" lon="3.81941">
        <ele>52.6</ele>
        <time>2023-03-11T15:38:26Z</time>
      </trkpt>
      <trkpt lat="43.63075" lon="3.81996">
        <ele>52.7</ele>
        <time>2023-03-11T15:38:36Z</time>
      </trkpt>
      <trkpt lat="43.63074" lon="3.8204">
        <ele>53</ele>
        <time>2023-03-11T15:38:46Z</time>
      </trkpt>
      <trkpt lat="43.63081" lon="3.82067">
        <ele>53.4</ele>
        <time>2023-03-11T15:38:56Z</time>
      </trkpt>
      <trkpt lat="43.63102" lon="3.82078">
        <ele>54.5</ele>
        <time>2023-03-11T15:42:16Z</time>
      </trkpt>
      <trkpt lat="43.63115" lon="3.8209">
        <ele>55</ele>
        <time>2023-03-11T15:42:36Z</time>
      </trkpt>
      <trkpt lat="43.6311" lon="3.82116">
        <ele>55</ele>
        <time>2023-03-11T15:45:46Z</time>
      </trkpt>
      <trkpt lat="43.6309" lon="3.82128">
        <ele>54.2</ele>
        <time>2023-03-11T15:46:06Z</time>
      </trkpt>
      <trkpt lat="43.63083" lon="3.82162">
        <ele>54.8</ele>
        <time>2023-03-11T15:46:16Z</time>
      </trkpt>
      <trkpt lat="43.63075" lon="3.82175">
        <ele>55</ele>
        <time>2023-03-11T15:46:26Z</time>
      </trkpt>
      <trkpt lat="43.63069" lon="3.82205">
        <ele>55</ele>
        <time>2023-03-11T15:46:36Z</time>
      </trkpt>
      <trkpt lat="43.63068" lon="3.8224">
        <ele>52.4</ele>
        <time>2023-03-11T15:46:46Z</time>
      </trkpt>
      <trkpt lat="43.63067" lon="3.82273">
        <ele>55.1</ele>
        <time>2023-03-11T15:46:56Z</time>
      </trkpt>
      <trkpt lat="43.63065" lon="3.82316">
        <ele>56</ele>
        <time>2023-03-11T15:47:06Z</time>
      </trkpt>
      <trkpt lat="43.63063" lon="3.82365">
        <ele>56</ele>
        <time>2023-03-11T15:47:16Z</time>
      </trkpt>
      <trkpt lat="43.63061" lon="3.82417">
        <ele>56</ele>
        <time>2023-03-11T15:47:26Z</time>
      </trkpt>
      <trkpt lat="43.63058" lon="3.82469">
        <ele>55.1</ele>
        <time>2023-03-11T15:47:36Z</time>
      </trkpt>
      <trkpt lat="43.63045" lon="3.82522">
        <ele>54.6</ele>
        <time>2023-03-11T15:47:46Z</time>
      </trkpt>
      <trkpt lat="43.63043" lon="3.82577">
        <ele>55.9</ele>
        <time>2023-03-11T15:47:56Z</time>
      </trkpt>
      <trkpt lat="43.63041" lon="3.82625">
        <ele>58.8</ele>
        <time>2023-03-11T15:48:06Z</time>
      </trkpt>
      <trkpt lat="43.63017" lon="3.82634">
        <ele>59.5</ele>
        <time>2023-03-11T15:48:16Z</time>
      </trkpt>
      <trkpt lat="43.62996" lon="3.82655">
        <ele>59.7</ele>
        <time>2023-03-11T15:48:26Z</time>
      </trkpt>
      <trkpt lat="43.62975" lon="3.82682">
        <ele>59.9</ele>
        <time>2023-03-11T15:48:36Z</time>
      </trkpt>
      <trkpt lat="43.6295" lon="3.82703">
        <ele>59.1</ele>
        <time>2023-03-11T15:48:46Z</time>
      </trkpt>
      <trkpt lat="43.62927" lon="3.82731">
        <ele>59</ele>
        <time>2023-03-11T15:48:56Z</time>
      </trkpt>
      <trkpt lat="43.62907" lon="3.82756">
        <ele>60.7</ele>
        <time>2023-03-11T15:49:06Z</time>
      </trkpt>
      <trkpt lat="43.62904" lon="3.82799">
        <ele>63.5</ele>
        <time>2023-03-11T15:49:16Z</time>
      </trkpt>
      <trkpt lat="43.62888" lon="3.82814">
        <ele>64.6</ele>
        <time>2023-03-11T15:49:26Z</time>
      </trkpt>
      <trkpt lat="43.62906" lon="3.82803">
        <ele>63.8</ele>
        <time>2023-03-11T15:49:36Z</time>
      </trkpt>
      <trkpt lat="43.62898" lon="3.82812">
        <ele>64.5</ele>
        <time>2023-03-11T15:49:56Z</time>
      </trkpt>
      <trkpt lat="43.62878" lon="3.82817">
        <ele>65</ele>
        <time>2023-03-11T15:50:16Z</time>
      </trkpt>
      <trkpt lat="43.62859" lon="3.8282">
        <ele>65.5</ele>
        <time>2023-03-11T15:50:26Z</time>
      </trkpt>
      <trkpt lat="43.62852" lon="3.82845">
        <ele>67.7</ele>
        <time>2023-03-11T15:50:36Z</time>
      </trkpt>
      <trkpt lat="43.62848" lon="3.82871">
        <ele>69.1</ele>
        <time>2023-03-11T15:50:46Z</time>
      </trkpt>
      <trkpt lat="43.62843" lon="3.82896">
        <ele>70.2</ele>
        <time>2023-03-11T15:50:56Z</time>
      </trkpt>
      <trkpt lat="43.62838" lon="3.82924">
        <ele>70.8</ele>
        <time>2023-03-11T15:51:06Z</time>
      </trkpt>
      <trkpt lat="43.62834" lon="3.8295">
        <ele>72.6</ele>
        <time>2023-03-11T15:51:16Z</time>
      </trkpt>
      <trkpt lat="43.62836" lon="3.82967">
        <ele>74.5</ele>
        <time>2023-03-11T15:51:26Z</time>
      </trkpt>
      <trkpt lat="43.62838" lon="3.82986">
        <ele>75.7</ele>
        <time>2023-03-11T15:51:36Z</time>
      </trkpt>
      <trkpt lat="43.62837" lon="3.83007">
        <ele>76.6</ele>
        <time>2023-03-11T15:51:46Z</time>
      </trkpt>
      <trkpt lat="43.62838" lon="3.83027">
        <ele>77.9</ele>
        <time>2023-03-11T15:51:56Z</time>
      </trkpt>
      <trkpt lat="43.62843" lon="3.83043">
        <ele>79.1</ele>
        <time>2023-03-11T15:52:06Z</time>
      </trkpt>
      <trkpt lat="43.62848" lon="3.83061">
        <ele>80.7</ele>
        <time>2023-03-11T15:52:16Z</time>
      </trkpt>
      <trkpt lat="43.62845" lon="3.83077">
        <ele>82.8</ele>
        <time>2023-03-11T15:52:26Z</time>
      </trkpt>
      <trkpt lat="43.62835" lon="3.83089">
        <ele>84.1</ele>
        <time>2023-03-11T15:52:36Z</time>
      </trkpt>
      <trkpt lat="43.62819" lon="3.8309">
        <ele>84.2</ele>
        <time>2023-03-11T15:52:46Z</time>
      </trkpt>
      <trkpt lat="43.62801" lon="3.83095">
        <ele>84.6</ele>
        <time>2023-03-11T15:52:56Z</time>
      </trkpt>
      <trkpt lat="43.62783" lon="3.83098">
        <ele>85.3</ele>
        <time>2023-03-11T15:53:06Z</time>
      </trkpt>
      <trkpt lat="43.62764" lon="3.83102">
        <ele>85.7</ele>
        <time>2023-03-11T15:53:16Z</time>
      </trkpt>
      <trkpt lat="43.62746" lon="3.8311">
        <ele>86</ele>
        <time>2023-03-11T15:53:26Z</time>
      </trkpt>
      <trkpt lat="43.62721" lon="3.83124">
        <ele>85.5</ele>
        <time>2023-03-11T15:53:36Z</time>
      </trkpt>
      <trkpt lat="43.62683" lon="3.83147">
        <ele>83.3</ele>
        <time>2023-03-11T15:53:46Z</time>
      </trkpt>
      <trkpt lat="43.62652" lon="3.8318">
        <ele>81.5</ele>
        <time>2023-03-11T15:53:56Z</time>
      </trkpt>
      <trkpt lat="43.62618" lon="3.83213">
        <ele>80.1</ele>
        <time>2023-03-11T15:54:06Z</time>
      </trkpt>
      <trkpt lat="43.62587" lon="3.83244">
        <ele>79</ele>
        <time>2023-03-11T15:54:16Z</time>
      </trkpt>
      <trkpt lat="43.62554" lon="3.8329">
        <ele>77.9</ele>
        <time>2023-03-11T15:54:26Z</time>
      </trkpt>
      <trkpt lat="43.62528" lon="3.83371">
        <ele>76.4</ele>
        <time>2023-03-11T15:54:36Z</time>
      </trkpt>
      <trkpt lat="43.62513" lon="3.83423">
        <ele>75.4</ele>
        <time>2023-03-11T15:54:46Z</time>
      </trkpt>
    </trkseg>
  </trk>
</gpx>